sensor_id;sensor_type;location;lat;lon;timestamp;P1;durP1;ratioP1;P2;durP2;ratioP2
67456;SDS011;54319;52.038;4.640;2023-11-19T14:50:47;30.05;;;4.13;;
67456;SDS011;54319;52.038;4.640;2023-11-19T14:53:14;17.73;;;3.13;;
67456;SDS011;54319;52.038;4.640;2023-11-19T14:55:41;15.30;;;3.33;;
67456;SDS011;54319;52.038;4.640;2023-11-19T14:58:08;19.73;;;3.80;;
67456;SDS011;54319;52.038;4.640;2023-11-19T15:00:34;21.03;;;3.40;;
67456;SDS011;54319;52.038;4.640;2023-11-19T15:03:01;16.00;;;3.23;;
67456;SDS011;54319;52.038;4.640;2023-11-19T15:05:27;27.57;;;4.83;;
67456;SDS011;54319;52.038;4.640;2023-11-19T15:07:56;25.58;;;4.65;;
67456;SDS011;54319;52.038;4.640;2023-11-19T15:10:22;19.60;;;3.40;;
67456;SDS011;54319;52.038;4.640;2023-11-19T15:12:49;27.30;;;3.50;;
67456;SDS011;54319;52.038;4.640;2023-11-19T15:15:18;23.27;;;3.50;;
67456;SDS011;54319;52.038;4.640;2023-11-19T15:17:44;27.43;;;4.30;;
67456;SDS011;54319;52.038;4.640;2023-11-19T15:20:11;28.53;;;4.77;;
67456;SDS011;54319;52.038;4.640;2023-11-19T15:22:40;28.67;;;4.13;;
67456;SDS011;54319;52.038;4.640;2023-11-19T15:27:36;28.70;;;4.50;;
67456;SDS011;54319;52.038;4.640;2023-11-19T15:30:03;24.33;;;3.50;;
67456;SDS011;54319;52.038;4.640;2023-11-19T15:34:57;19.70;;;4.00;;
67456;SDS011;54319;52.038;4.640;2023-11-19T15:37:23;30.77;;;4.97;;
67456;SDS011;54319;52.038;4.640;2023-11-19T15:39:50;23.00;;;3.90;;
67456;SDS011;54319;52.038;4.640;2023-11-19T15:42:18;22.15;;;3.72;;
67456;SDS011;54319;52.038;4.640;2023-11-19T15:44:45;23.35;;;3.80;;
67456;SDS011;54319;52.038;4.640;2023-11-19T15:47:11;21.20;;;3.47;;
67456;SDS011;54319;52.038;4.640;2023-11-19T15:49:39;23.73;;;4.00;;
67456;SDS011;54319;52.038;4.640;2023-11-19T15:52:06;17.97;;;3.23;;
67456;SDS011;54319;52.038;4.640;2023-11-19T15:54:33;23.75;;;4.10;;
67456;SDS011;54319;52.038;4.640;2023-11-19T15:57:00;25.95;;;3.45;;
67456;SDS011;54319;52.038;4.640;2023-11-19T15:59:28;18.67;;;3.95;;
67456;SDS011;54319;52.038;4.640;2023-11-19T16:01:56;28.63;;;4.30;;
67456;SDS011;54319;52.038;4.640;2023-11-19T16:04:23;23.23;;;3.77;;
67456;SDS011;54319;52.038;4.640;2023-11-19T16:06:49;17.13;;;3.30;;
67456;SDS011;54319;52.038;4.640;2023-11-19T16:09:16;24.20;;;3.90;;
67456;SDS011;54319;52.038;4.640;2023-11-19T16:11:44;25.00;;;3.97;;
67456;SDS011;54319;52.038;4.640;2023-11-19T16:14:11;31.10;;;5.57;;
67456;SDS011;54319;52.038;4.640;2023-11-19T16:16:43;23.25;;;3.80;;
67456;SDS011;54319;52.038;4.640;2023-11-19T16:19:10;24.50;;;3.92;;
67456;SDS011;54319;52.038;4.640;2023-11-19T16:21:37;28.07;;;4.23;;
67456;SDS011;54319;52.038;4.640;2023-11-19T16:24:03;16.90;;;3.47;;
67456;SDS011;54319;52.038;4.640;2023-11-19T16:26:32;26.25;;;4.38;;
67456;SDS011;54319;52.038;4.640;2023-11-19T16:29:01;24.95;;;3.85;;
67456;SDS011;54319;52.038;4.640;2023-11-19T16:31:28;21.90;;;4.20;;
67456;SDS011;54319;52.038;4.640;2023-11-19T16:33:56;23.73;;;3.67;;
67456;SDS011;54319;52.038;4.640;2023-11-19T16:36:23;27.00;;;4.10;;
67456;SDS011;54319;52.038;4.640;2023-11-19T16:38:50;22.50;;;4.00;;
67456;SDS011;54319;52.038;4.640;2023-11-19T16:41:18;24.17;;;3.60;;
67456;SDS011;54319;52.038;4.640;2023-11-19T16:43:45;25.48;;;4.65;;
67456;SDS011;54319;52.038;4.640;2023-11-19T16:46:13;20.80;;;3.50;;
67456;SDS011;54319;52.038;4.640;2023-11-19T16:48:40;25.92;;;3.97;;
67456;SDS011;54319;52.038;4.640;2023-11-19T16:51:12;26.87;;;3.43;;
67456;SDS011;54319;52.038;4.640;2023-11-19T16:53:43;31.13;;;4.93;;
67456;SDS011;54319;52.038;4.640;2023-11-19T16:56:11;25.02;;;4.00;;
67456;SDS011;54319;52.038;4.640;2023-11-19T16:58:37;23.67;;;3.95;;
67456;SDS011;54319;52.038;4.640;2023-11-19T17:01:07;26.13;;;4.22;;
67456;SDS011;54319;52.038;4.640;2023-11-19T17:03:33;30.63;;;4.63;;
67456;SDS011;54319;52.038;4.640;2023-11-19T17:06:00;28.88;;;4.15;;
67456;SDS011;54319;52.038;4.640;2023-11-19T17:08:29;33.20;;;4.03;;
67456;SDS011;54319;52.038;4.640;2023-11-19T17:10:57;28.42;;;3.97;;
67456;SDS011;54319;52.038;4.640;2023-11-19T17:13:24;23.98;;;4.35;;
67456;SDS011;54319;52.038;4.640;2023-11-19T17:15:51;23.13;;;3.40;;
67456;SDS011;54319;52.038;4.640;2023-11-19T17:18:17;29.47;;;4.53;;
67456;SDS011;54319;52.038;4.640;2023-11-19T17:20:44;27.23;;;4.27;;
67456;SDS011;54319;52.038;4.640;2023-11-19T17:23:11;29.10;;;4.40;;
67456;SDS011;54319;52.038;4.640;2023-11-19T17:25:39;31.40;;;4.17;;
67456;SDS011;54319;52.038;4.640;2023-11-19T17:28:06;26.40;;;4.10;;
67456;SDS011;54319;52.038;4.640;2023-11-19T17:30:33;44.05;;;4.38;;
67456;SDS011;54319;52.038;4.640;2023-11-19T17:33:00;25.42;;;3.75;;
67456;SDS011;54319;52.038;4.640;2023-11-19T17:35:26;31.53;;;4.70;;
67456;SDS011;54319;52.038;4.640;2023-11-19T17:37:53;25.33;;;4.35;;
67456;SDS011;54319;52.038;4.640;2023-11-19T17:40:20;31.58;;;3.92;;
67456;SDS011;54319;52.038;4.640;2023-11-19T17:42:50;23.83;;;3.45;;
67456;SDS011;54319;52.038;4.640;2023-11-19T17:45:16;22.25;;;3.80;;
67456;SDS011;54319;52.038;4.640;2023-11-19T17:47:43;30.80;;;5.20;;
67456;SDS011;54319;52.038;4.640;2023-11-19T17:50:10;26.33;;;5.05;;
67456;SDS011;54319;52.038;4.640;2023-11-19T17:52:36;29.67;;;4.47;;
67456;SDS011;54319;52.038;4.640;2023-11-19T17:55:03;29.77;;;4.38;;
67456;SDS011;54319;52.038;4.640;2023-11-19T17:57:30;33.05;;;4.50;;
67456;SDS011;54319;52.038;4.640;2023-11-19T17:59:59;34.80;;;4.70;;
67456;SDS011;54319;52.038;4.640;2023-11-19T18:02:30;35.30;;;5.13;;
67456;SDS011;54319;52.038;4.640;2023-11-19T18:04:57;26.00;;;3.97;;
67456;SDS011;54319;52.038;4.640;2023-11-19T18:07:24;33.70;;;4.45;;
67456;SDS011;54319;52.038;4.640;2023-11-19T18:09:50;24.57;;;3.93;;
67456;SDS011;54319;52.038;4.640;2023-11-19T18:12:17;27.10;;;3.83;;
67456;SDS011;54319;52.038;4.640;2023-11-19T18:14:44;26.05;;;3.60;;
67456;SDS011;54319;52.038;4.640;2023-11-19T18:17:14;28.67;;;4.45;;
67456;SDS011;54319;52.038;4.640;2023-11-19T18:19:41;20.45;;;3.83;;
67456;SDS011;54319;52.038;4.640;2023-11-19T18:22:07;28.15;;;4.13;;
67456;SDS011;54319;52.038;4.640;2023-11-19T18:24:35;26.13;;;4.15;;
67456;SDS011;54319;52.038;4.640;2023-11-19T18:27:02;22.80;;;3.70;;
67456;SDS011;54319;52.038;4.640;2023-11-19T18:29:29;31.60;;;5.72;;
67456;SDS011;54319;52.038;4.640;2023-11-19T18:31:56;24.90;;;4.30;;
67456;SDS011;54319;52.038;4.640;2023-11-19T18:34:24;33.80;;;3.77;;
67456;SDS011;54319;52.038;4.640;2023-11-19T18:36:52;22.60;;;3.53;;
67456;SDS011;54319;52.038;4.640;2023-11-19T18:39:18;23.90;;;4.33;;
67456;SDS011;54319;52.038;4.640;2023-11-19T18:41:45;21.73;;;4.87;;
67456;SDS011;54319;52.038;4.640;2023-11-19T18:44:12;25.52;;;4.55;;
67456;SDS011;54319;52.038;4.640;2023-11-19T18:46:38;38.08;;;5.70;;
67456;SDS011;54319;52.038;4.640;2023-11-19T18:49:05;35.88;;;4.50;;
67456;SDS011;54319;52.038;4.640;2023-11-19T18:51:35;31.77;;;4.40;;
67456;SDS011;54319;52.038;4.640;2023-11-19T18:54:02;34.42;;;4.18;;
67456;SDS011;54319;52.038;4.640;2023-11-19T18:56:29;25.88;;;4.05;;
67456;SDS011;54319;52.038;4.640;2023-11-19T18:58:55;30.63;;;4.03;;
67456;SDS011;54319;52.038;4.640;2023-11-19T19:01:22;28.33;;;5.23;;
67456;SDS011;54319;52.038;4.640;2023-11-19T19:03:51;29.00;;;4.57;;
67456;SDS011;54319;52.038;4.640;2023-11-19T19:06:18;23.80;;;3.67;;
67456;SDS011;54319;52.038;4.640;2023-11-19T19:11:15;26.77;;;4.07;;
67456;SDS011;54319;52.038;4.640;2023-11-19T19:13:43;47.17;;;6.15;;
67456;SDS011;54319;52.038;4.640;2023-11-19T19:16:10;21.90;;;4.53;;
67456;SDS011;54319;52.038;4.640;2023-11-19T19:18:37;28.30;;;3.95;;
67456;SDS011;54319;52.038;4.640;2023-11-19T19:21:04;29.60;;;4.28;;
67456;SDS011;54319;52.038;4.640;2023-11-19T19:23:31;33.03;;;4.35;;
67456;SDS011;54319;52.038;4.640;2023-11-19T19:25:59;32.30;;;4.33;;
67456;SDS011;54319;52.038;4.640;2023-11-19T19:28:26;29.33;;;4.55;;
67456;SDS011;54319;52.038;4.640;2023-11-19T19:30:53;27.60;;;4.37;;
67456;SDS011;54319;52.038;4.640;2023-11-19T19:33:19;21.52;;;3.90;;
67456;SDS011;54319;52.038;4.640;2023-11-19T19:35:46;25.87;;;4.00;;
67456;SDS011;54319;52.038;4.640;2023-11-19T19:38:12;25.53;;;4.70;;
67456;SDS011;54319;52.038;4.640;2023-11-19T19:40:39;29.83;;;4.40;;
67456;SDS011;54319;52.038;4.640;2023-11-19T19:43:07;25.43;;;5.57;;
67456;SDS011;54319;52.038;4.640;2023-11-19T19:45:34;26.90;;;3.90;;
67456;SDS011;54319;52.038;4.640;2023-11-19T19:48:01;32.25;;;4.22;;
67456;SDS011;54319;52.038;4.640;2023-11-19T19:50:28;22.27;;;4.10;;
67456;SDS011;54319;52.038;4.640;2023-11-19T19:52:55;28.90;;;4.30;;
67456;SDS011;54319;52.038;4.640;2023-11-19T19:55:21;25.53;;;3.80;;
67456;SDS011;54319;52.038;4.640;2023-11-19T19:57:48;23.10;;;3.40;;
67456;SDS011;54319;52.038;4.640;2023-11-19T20:00:16;28.83;;;4.07;;
67456;SDS011;54319;52.038;4.640;2023-11-19T20:02:44;22.20;;;3.97;;
67456;SDS011;54319;52.038;4.640;2023-11-19T20:05:10;22.67;;;5.63;;
67456;SDS011;54319;52.038;4.640;2023-11-19T20:07:37;20.83;;;4.00;;
67456;SDS011;54319;52.038;4.640;2023-11-19T20:10:05;24.02;;;3.80;;
67456;SDS011;54319;52.038;4.640;2023-11-19T20:12:32;22.38;;;3.35;;
67456;SDS011;54319;52.038;4.640;2023-11-19T20:14:59;20.42;;;3.45;;
67456;SDS011;54319;52.038;4.640;2023-11-19T20:19:54;29.83;;;3.65;;
67456;SDS011;54319;52.038;4.640;2023-11-19T20:22:21;22.70;;;3.97;;
67456;SDS011;54319;52.038;4.640;2023-11-19T20:24:47;23.13;;;3.80;;
67456;SDS011;54319;52.038;4.640;2023-11-19T20:27:14;23.20;;;4.10;;
67456;SDS011;54319;52.038;4.640;2023-11-19T20:32:10;18.73;;;2.97;;
67456;SDS011;54319;52.038;4.640;2023-11-19T20:34:38;20.33;;;3.20;;
67456;SDS011;54319;52.038;4.640;2023-11-19T20:37:05;25.67;;;3.65;;
67456;SDS011;54319;52.038;4.640;2023-11-19T20:39:32;17.63;;;3.20;;
67456;SDS011;54319;52.038;4.640;2023-11-19T20:41:58;19.85;;;3.47;;
67456;SDS011;54319;52.038;4.640;2023-11-19T20:44:25;24.17;;;3.72;;
67456;SDS011;54319;52.038;4.640;2023-11-19T20:46:53;20.50;;;3.30;;
67456;SDS011;54319;52.038;4.640;2023-11-19T20:49:20;29.52;;;3.72;;
67456;SDS011;54319;52.038;4.640;2023-11-19T20:51:48;14.77;;;2.88;;
67456;SDS011;54319;52.038;4.640;2023-11-19T20:54:17;23.23;;;3.28;;
67456;SDS011;54319;52.038;4.640;2023-11-19T20:56:43;14.45;;;2.90;;
67456;SDS011;54319;52.038;4.640;2023-11-19T20:59:10;14.43;;;3.88;;
67456;SDS011;54319;52.038;4.640;2023-11-19T21:01:41;14.73;;;3.00;;
67456;SDS011;54319;52.038;4.640;2023-11-19T21:04:08;17.63;;;2.78;;
67456;SDS011;54319;52.038;4.640;2023-11-19T21:06:34;19.73;;;3.30;;
67456;SDS011;54319;52.038;4.640;2023-11-19T21:11:29;16.67;;;2.92;;
67456;SDS011;54319;52.038;4.640;2023-11-19T21:13:55;10.77;;;2.53;;
67456;SDS011;54319;52.038;4.640;2023-11-19T21:16:22;17.90;;;3.13;;
67456;SDS011;54319;52.038;4.640;2023-11-19T21:18:48;21.80;;;3.03;;
67456;SDS011;54319;52.038;4.640;2023-11-19T21:21:16;16.25;;;3.17;;
67456;SDS011;54319;52.038;4.640;2023-11-19T21:23:43;11.37;;;2.43;;
67456;SDS011;54319;52.038;4.640;2023-11-19T21:26:11;16.45;;;2.90;;
67456;SDS011;54319;52.038;4.640;2023-11-19T21:28:39;17.02;;;3.13;;
67456;SDS011;54319;52.038;4.640;2023-11-19T21:31:06;21.08;;;3.17;;
67456;SDS011;54319;52.038;4.640;2023-11-19T21:33:34;9.35;;;2.42;;
67456;SDS011;54319;52.038;4.640;2023-11-19T21:36:01;12.23;;;3.00;;
67456;SDS011;54319;52.038;4.640;2023-11-19T21:38:27;17.00;;;2.97;;
67456;SDS011;54319;52.038;4.640;2023-11-19T21:40:54;13.83;;;2.77;;
67456;SDS011;54319;52.038;4.640;2023-11-19T21:43:22;18.40;;;2.63;;
67456;SDS011;54319;52.038;4.640;2023-11-19T21:45:49;20.08;;;3.05;;
67456;SDS011;54319;52.038;4.640;2023-11-19T21:48:15;15.53;;;2.60;;
67456;SDS011;54319;52.038;4.640;2023-11-19T21:50:42;20.67;;;2.80;;
67456;SDS011;54319;52.038;4.640;2023-11-19T21:53:08;12.18;;;2.63;;
67456;SDS011;54319;52.038;4.640;2023-11-19T21:55:35;17.33;;;3.17;;
67456;SDS011;54319;52.038;4.640;2023-11-19T21:58:02;24.13;;;3.30;;
67456;SDS011;54319;52.038;4.640;2023-11-19T22:00:30;16.27;;;3.13;;
67456;SDS011;54319;52.038;4.640;2023-11-19T22:02:57;18.48;;;3.35;;
67456;SDS011;54319;52.038;4.640;2023-11-19T22:05:24;12.52;;;2.70;;
67456;SDS011;54319;52.038;4.640;2023-11-19T22:07:51;18.83;;;3.33;;
67456;SDS011;54319;52.038;4.640;2023-11-19T22:10:18;15.07;;;3.10;;
67456;SDS011;54319;52.038;4.640;2023-11-19T22:12:44;7.87;;;2.17;;
67456;SDS011;54319;52.038;4.640;2023-11-19T22:15:11;11.82;;;2.58;;
67456;SDS011;54319;52.038;4.640;2023-11-19T22:17:39;13.50;;;2.87;;
67456;SDS011;54319;52.038;4.640;2023-11-19T22:20:06;16.23;;;2.75;;
67456;SDS011;54319;52.038;4.640;2023-11-19T22:22:35;12.63;;;2.75;;
67456;SDS011;54319;52.038;4.640;2023-11-19T22:25:02;9.38;;;2.08;;
67456;SDS011;54319;52.038;4.640;2023-11-19T22:27:29;14.90;;;3.38;;
67456;SDS011;54319;52.038;4.640;2023-11-19T22:29:55;9.70;;;2.40;;
67456;SDS011;54319;52.038;4.640;2023-11-19T22:32:22;12.00;;;2.50;;
67456;SDS011;54319;52.038;4.640;2023-11-19T22:34:52;14.45;;;2.95;;
67456;SDS011;54319;52.038;4.640;2023-11-19T22:37:19;14.43;;;2.60;;
67456;SDS011;54319;52.038;4.640;2023-11-19T22:39:45;10.60;;;2.55;;
67456;SDS011;54319;52.038;4.640;2023-11-19T22:42:12;12.50;;;2.37;;
67456;SDS011;54319;52.038;4.640;2023-11-19T22:44:39;14.37;;;2.33;;
67456;SDS011;54319;52.038;4.640;2023-11-19T22:47:05;9.63;;;2.80;;
67456;SDS011;54319;52.038;4.640;2023-11-19T22:49:32;11.93;;;2.28;;
67456;SDS011;54319;52.038;4.640;2023-11-19T22:52:00;11.73;;;2.33;;
67456;SDS011;54319;52.038;4.640;2023-11-19T22:54:27;7.80;;;1.90;;
67456;SDS011;54319;52.038;4.640;2023-11-19T22:56:54;8.18;;;2.17;;
67456;SDS011;54319;52.038;4.640;2023-11-19T22:59:20;16.60;;;2.83;;
67456;SDS011;54319;52.038;4.640;2023-11-19T23:01:47;13.90;;;2.58;;
67456;SDS011;54319;52.038;4.640;2023-11-19T23:04:14;14.73;;;2.70;;
67456;SDS011;54319;52.038;4.640;2023-11-19T23:06:40;17.43;;;3.40;;
67456;SDS011;54319;52.038;4.640;2023-11-19T23:11:36;13.98;;;2.10;;
67456;SDS011;54319;52.038;4.640;2023-11-19T23:14:02;12.10;;;2.43;;
67456;SDS011;54319;52.038;4.640;2023-11-19T23:16:29;11.73;;;2.80;;
67456;SDS011;54319;52.038;4.640;2023-11-19T23:18:56;14.90;;;2.53;;
67456;SDS011;54319;52.038;4.640;2023-11-19T23:21:22;14.90;;;3.47;;
67456;SDS011;54319;52.038;4.640;2023-11-19T23:23:49;12.85;;;2.45;;
67456;SDS011;54319;52.038;4.640;2023-11-19T23:26:17;17.20;;;3.23;;
67456;SDS011;54319;52.038;4.640;2023-11-19T23:28:44;10.73;;;2.25;;
67456;SDS011;54319;52.038;4.640;2023-11-19T23:31:10;11.88;;;2.30;;
67456;SDS011;54319;52.038;4.640;2023-11-19T23:33:37;13.75;;;2.22;;
67456;SDS011;54319;52.038;4.640;2023-11-19T23:36:04;13.13;;;2.03;;
67456;SDS011;54319;52.038;4.640;2023-11-19T23:38:31;15.70;;;2.83;;
67456;SDS011;54319;52.038;4.640;2023-11-19T23:40:58;8.48;;;2.40;;
67456;SDS011;54319;52.038;4.640;2023-11-19T23:43:26;15.02;;;2.72;;
67456;SDS011;54319;52.038;4.640;2023-11-19T23:45:55;13.30;;;2.65;;
67456;SDS011;54319;52.038;4.640;2023-11-19T23:48:21;17.33;;;2.87;;
67456;SDS011;54319;52.038;4.640;2023-11-19T23:50:48;12.30;;;2.40;;
67456;SDS011;54319;52.038;4.640;2023-11-19T23:53:14;11.47;;;2.33;;
67456;SDS011;54319;52.038;4.640;2023-11-19T23:55:41;13.10;;;2.37;;
67456;SDS011;54319;52.038;4.640;2023-11-19T23:58:08;15.38;;;2.60;;
